sensor_id;sensor_type;location;lat;lon;timestamp;P1;durP1;ratioP1;P2;durP2;ratioP2
20857;SDS011;10589;53.636;10.012;2023-07-22T03:45:33;15.63;;;9.07;;
20857;SDS011;10589;53.636;10.012;2023-07-22T03:47:59;13.37;;;8.87;;
20857;SDS011;10589;53.636;10.012;2023-07-22T03:50:25;17.43;;;9.83;;
20857;SDS011;10589;53.636;10.012;2023-07-22T03:52:51;13.50;;;8.07;;
20857;SDS011;10589;53.636;10.012;2023-07-22T03:55:17;15.33;;;9.33;;
20857;SDS011;10589;53.636;10.012;2023-07-22T03:57:44;17.57;;;9.10;;
20857;SDS011;10589;53.636;10.012;2023-07-22T04:00:10;20.03;;;9.00;;
20857;SDS011;10589;53.636;10.012;2023-07-22T04:02:36;17.27;;;10.37;;
20857;SDS011;10589;53.636;10.012;2023-07-22T04:05:02;17.00;;;9.87;;
20857;SDS011;10589;53.636;10.012;2023-07-22T04:07:28;21.17;;;9.97;;
20857;SDS011;10589;53.636;10.012;2023-07-22T04:09:53;15.17;;;8.97;;
20857;SDS011;10589;53.636;10.012;2023-07-22T04:12:19;15.20;;;9.23;;
20857;SDS011;10589;53.636;10.012;2023-07-22T04:14:44;14.63;;;9.20;;
20857;SDS011;10589;53.636;10.012;2023-07-22T04:17:10;16.17;;;9.03;;
20857;SDS011;10589;53.636;10.012;2023-07-22T04:19:36;17.30;;;9.50;;
20857;SDS011;10589;53.636;10.012;2023-07-22T04:22:02;14.47;;;8.77;;
20857;SDS011;10589;53.636;10.012;2023-07-22T04:24:32;13.40;;;7.97;;
20857;SDS011;10589;53.636;10.012;2023-07-22T04:26:58;16.60;;;8.20;;
20857;SDS011;10589;53.636;10.012;2023-07-22T04:29:24;14.60;;;8.67;;
20857;SDS011;10589;53.636;10.012;2023-07-22T04:31:49;11.93;;;7.93;;
20857;SDS011;10589;53.636;10.012;2023-07-22T04:34:15;13.23;;;7.97;;
20857;SDS011;10589;53.636;10.012;2023-07-22T04:36:41;13.63;;;8.47;;
20857;SDS011;10589;53.636;10.012;2023-07-22T04:39:06;15.57;;;7.37;;
20857;SDS011;10589;53.636;10.012;2023-07-22T04:41:33;14.37;;;7.70;;
20857;SDS011;10589;53.636;10.012;2023-07-22T04:43:58;13.53;;;7.03;;
20857;SDS011;10589;53.636;10.012;2023-07-22T04:46:24;10.70;;;7.00;;
20857;SDS011;10589;53.636;10.012;2023-07-22T04:48:53;12.33;;;6.70;;
20857;SDS011;10589;53.636;10.012;2023-07-22T04:51:23;10.77;;;7.30;;
20857;SDS011;10589;53.636;10.012;2023-07-22T04:53:48;9.20;;;7.03;;
20857;SDS011;10589;53.636;10.012;2023-07-22T04:56:14;12.77;;;6.63;;
20857;SDS011;10589;53.636;10.012;2023-07-22T04:58:41;10.13;;;6.77;;
20857;SDS011;10589;53.636;10.012;2023-07-22T05:01:06;11.10;;;6.37;;
20857;SDS011;10589;53.636;10.012;2023-07-22T05:03:33;13.70;;;7.60;;
20857;SDS011;10589;53.636;10.012;2023-07-22T05:05:59;9.50;;;6.70;;
20857;SDS011;10589;53.636;10.012;2023-07-22T05:08:25;10.63;;;7.10;;
20857;SDS011;10589;53.636;10.012;2023-07-22T05:10:50;13.30;;;6.93;;
20857;SDS011;10589;53.636;10.012;2023-07-22T05:13:16;14.83;;;6.93;;
20857;SDS011;10589;53.636;10.012;2023-07-22T05:15:41;11.67;;;7.07;;
20857;SDS011;10589;53.636;10.012;2023-07-22T05:18:07;11.33;;;6.50;;
20857;SDS011;10589;53.636;10.012;2023-07-22T05:20:33;9.20;;;6.10;;
20857;SDS011;10589;53.636;10.012;2023-07-22T05:22:58;14.83;;;7.20;;
20857;SDS011;10589;53.636;10.012;2023-07-22T05:25:24;13.00;;;6.23;;
20857;SDS011;10589;53.636;10.012;2023-07-22T05:27:50;9.47;;;6.80;;
20857;SDS011;10589;53.636;10.012;2023-07-22T05:30:15;11.47;;;6.13;;
20857;SDS011;10589;53.636;10.012;2023-07-22T05:32:41;8.57;;;5.73;;
20857;SDS011;10589;53.636;10.012;2023-07-22T05:35:06;13.97;;;6.20;;
20857;SDS011;10589;53.636;10.012;2023-07-22T05:37:32;11.47;;;6.33;;
20857;SDS011;10589;53.636;10.012;2023-07-22T05:39:58;9.57;;;6.00;;
20857;SDS011;10589;53.636;10.012;2023-07-22T05:42:24;8.77;;;5.33;;
20857;SDS011;10589;53.636;10.012;2023-07-22T05:44:50;7.07;;;5.17;;
20857;SDS011;10589;53.636;10.012;2023-07-22T05:47:15;9.70;;;5.63;;
20857;SDS011;10589;53.636;10.012;2023-07-22T05:49:41;6.63;;;5.20;;
20857;SDS011;10589;53.636;10.012;2023-07-22T05:52:06;8.30;;;5.07;;
20857;SDS011;10589;53.636;10.012;2023-07-22T05:54:32;9.90;;;6.23;;
20857;SDS011;10589;53.636;10.012;2023-07-22T05:56:58;9.50;;;5.73;;
20857;SDS011;10589;53.636;10.012;2023-07-22T05:59:24;6.77;;;4.70;;
20857;SDS011;10589;53.636;10.012;2023-07-22T06:01:50;8.77;;;5.30;;
20857;SDS011;10589;53.636;10.012;2023-07-22T06:04:16;6.17;;;4.63;;
20857;SDS011;10589;53.636;10.012;2023-07-22T06:06:41;9.40;;;5.60;;
20857;SDS011;10589;53.636;10.012;2023-07-22T06:09:07;8.03;;;4.87;;
20857;SDS011;10589;53.636;10.012;2023-07-22T06:11:32;9.60;;;5.30;;
20857;SDS011;10589;53.636;10.012;2023-07-22T06:13:58;9.27;;;4.50;;
20857;SDS011;10589;53.636;10.012;2023-07-22T06:16:24;9.37;;;4.73;;
20857;SDS011;10589;53.636;10.012;2023-07-22T06:18:49;8.13;;;4.03;;
20857;SDS011;10589;53.636;10.012;2023-07-22T06:21:15;9.00;;;3.77;;
20857;SDS011;10589;53.636;10.012;2023-07-22T06:23:41;8.00;;;3.77;;
20857;SDS011;10589;53.636;10.012;2023-07-22T06:26:06;9.53;;;3.70;;
20857;SDS011;10589;53.636;10.012;2023-07-22T06:28:32;4.33;;;3.27;;
20857;SDS011;10589;53.636;10.012;2023-07-22T06:30:57;5.60;;;3.70;;
20857;SDS011;10589;53.636;10.012;2023-07-22T06:33:23;5.83;;;3.80;;
20857;SDS011;10589;53.636;10.012;2023-07-22T06:35:49;5.83;;;3.23;;
20857;SDS011;10589;53.636;10.012;2023-07-22T06:38:14;7.17;;;3.33;;
20857;SDS011;10589;53.636;10.012;2023-07-22T06:40:40;6.47;;;3.23;;
20857;SDS011;10589;53.636;10.012;2023-07-22T06:43:05;8.10;;;3.57;;
20857;SDS011;10589;53.636;10.012;2023-07-22T06:45:31;8.13;;;3.10;;
20857;SDS011;10589;53.636;10.012;2023-07-22T06:47:58;4.73;;;3.13;;
20857;SDS011;10589;53.636;10.012;2023-07-22T06:50:23;7.05;;;3.63;;
20857;SDS011;10589;53.636;10.012;2023-07-22T06:52:49;7.70;;;3.27;;
20857;SDS011;10589;53.636;10.012;2023-07-22T06:55:15;6.03;;;3.30;;
20857;SDS011;10589;53.636;10.012;2023-07-22T06:57:41;5.57;;;2.80;;
20857;SDS011;10589;53.636;10.012;2023-07-22T07:00:06;5.07;;;2.63;;
20857;SDS011;10589;53.636;10.012;2023-07-22T07:02:34;4.07;;;2.80;;
20857;SDS011;10589;53.636;10.012;2023-07-22T07:05:00;7.40;;;3.08;;
20857;SDS011;10589;53.636;10.012;2023-07-22T07:07:26;6.87;;;2.83;;
20857;SDS011;10589;53.636;10.012;2023-07-22T07:09:52;4.57;;;2.65;;
20857;SDS011;10589;53.636;10.012;2023-07-22T07:12:18;6.47;;;2.30;;
20857;SDS011;10589;53.636;10.012;2023-07-22T07:14:43;3.55;;;1.98;;
20857;SDS011;10589;53.636;10.012;2023-07-22T07:17:09;3.85;;;1.83;;
20857;SDS011;10589;53.636;10.012;2023-07-22T07:19:34;6.47;;;2.00;;
20857;SDS011;10589;53.636;10.012;2023-07-22T07:22:00;4.15;;;1.50;;
20857;SDS011;10589;53.636;10.012;2023-07-22T07:24:26;4.28;;;1.75;;
20857;SDS011;10589;53.636;10.012;2023-07-22T07:26:52;3.58;;;1.35;;
20857;SDS011;10589;53.636;10.012;2023-07-22T07:29:17;4.28;;;1.50;;
20857;SDS011;10589;53.636;10.012;2023-07-22T07:31:43;3.55;;;1.35;;
20857;SDS011;10589;53.636;10.012;2023-07-22T07:34:09;5.35;;;1.60;;
20857;SDS011;10589;53.636;10.012;2023-07-22T07:36:34;3.90;;;1.30;;
20857;SDS011;10589;53.636;10.012;2023-07-22T07:39:00;2.80;;;1.10;;
20857;SDS011;10589;53.636;10.012;2023-07-22T07:41:25;5.22;;;1.30;;
20857;SDS011;10589;53.636;10.012;2023-07-22T07:43:51;4.43;;;1.08;;
20857;SDS011;10589;53.636;10.012;2023-07-22T07:48:47;2.10;;;0.73;;
20857;SDS011;10589;53.636;10.012;2023-07-22T07:51:15;4.25;;;1.17;;
20857;SDS011;10589;53.636;10.012;2023-07-22T07:53:41;2.88;;;1.15;;
20857;SDS011;10589;53.636;10.012;2023-07-22T07:56:09;3.05;;;1.38;;
20857;SDS011;10589;53.636;10.012;2023-07-22T07:58:35;4.60;;;1.17;;
20857;SDS011;10589;53.636;10.012;2023-07-22T08:01:01;3.33;;;1.00;;
20857;SDS011;10589;53.636;10.012;2023-07-22T08:03:27;1.67;;;0.70;;
20857;SDS011;10589;53.636;10.012;2023-07-22T08:05:52;2.38;;;0.95;;
20857;SDS011;10589;53.636;10.012;2023-07-22T08:08:18;2.42;;;0.95;;
20857;SDS011;10589;53.636;10.012;2023-07-22T08:10:43;2.45;;;1.02;;
20857;SDS011;10589;53.636;10.012;2023-07-22T08:13:09;2.67;;;1.20;;
20857;SDS011;10589;53.636;10.012;2023-07-22T08:15:35;3.22;;;1.40;;
20857;SDS011;10589;53.636;10.012;2023-07-22T08:18:01;3.75;;;1.50;;
20857;SDS011;10589;53.636;10.012;2023-07-22T08:20:26;2.60;;;1.23;;
20857;SDS011;10589;53.636;10.012;2023-07-22T08:22:52;6.20;;;2.03;;
20857;SDS011;10589;53.636;10.012;2023-07-22T08:25:18;2.83;;;1.00;;
20857;SDS011;10589;53.636;10.012;2023-07-22T08:27:43;1.83;;;1.20;;
20857;SDS011;10589;53.636;10.012;2023-07-22T08:30:10;7.22;;;1.23;;
20857;SDS011;10589;53.636;10.012;2023-07-22T08:32:36;4.88;;;1.15;;
20857;SDS011;10589;53.636;10.012;2023-07-22T08:35:02;3.35;;;1.23;;
20857;SDS011;10589;53.636;10.012;2023-07-22T08:37:28;2.45;;;1.17;;
20857;SDS011;10589;53.636;10.012;2023-07-22T08:39:53;5.35;;;0.90;;
20857;SDS011;10589;53.636;10.012;2023-07-22T08:42:19;3.28;;;0.60;;
20857;SDS011;10589;53.636;10.012;2023-07-22T08:44:46;2.20;;;0.80;;
20857;SDS011;10589;53.636;10.012;2023-07-22T08:47:15;1.90;;;0.90;;
20857;SDS011;10589;53.636;10.012;2023-07-22T08:49:43;3.45;;;1.00;;
20857;SDS011;10589;53.636;10.012;2023-07-22T08:52:15;2.85;;;0.82;;
20857;SDS011;10589;53.636;10.012;2023-07-22T08:54:42;1.55;;;0.70;;
20857;SDS011;10589;53.636;10.012;2023-07-22T08:57:08;0.82;;;0.60;;
20857;SDS011;10589;53.636;10.012;2023-07-22T08:59:34;0.77;;;0.40;;
20857;SDS011;10589;53.636;10.012;2023-07-22T09:02:01;3.55;;;0.77;;
20857;SDS011;10589;53.636;10.012;2023-07-22T09:04:27;1.80;;;0.70;;
20857;SDS011;10589;53.636;10.012;2023-07-22T09:06:53;1.27;;;0.57;;
20857;SDS011;10589;53.636;10.012;2023-07-22T09:09:21;2.10;;;0.90;;
20857;SDS011;10589;53.636;10.012;2023-07-22T09:11:47;2.95;;;0.80;;
20857;SDS011;10589;53.636;10.012;2023-07-22T09:14:14;1.98;;;0.60;;
20857;SDS011;10589;53.636;10.012;2023-07-22T09:16:42;2.03;;;0.68;;
20857;SDS011;10589;53.636;10.012;2023-07-22T09:19:08;1.63;;;0.65;;
20857;SDS011;10589;53.636;10.012;2023-07-22T09:21:34;3.17;;;1.00;;
20857;SDS011;10589;53.636;10.012;2023-07-22T09:24:19;1.55;;;0.70;;
20857;SDS011;10589;53.636;10.012;2023-07-22T09:26:49;2.53;;;0.70;;
20857;SDS011;10589;53.636;10.012;2023-07-22T09:29:15;3.50;;;0.70;;
20857;SDS011;10589;53.636;10.012;2023-07-22T09:31:51;4.30;;;0.90;;
20857;SDS011;10589;53.636;10.012;2023-07-22T09:34:18;2.50;;;0.57;;
20857;SDS011;10589;53.636;10.012;2023-07-22T09:36:54;1.20;;;0.70;;
20857;SDS011;10589;53.636;10.012;2023-07-22T09:39:26;1.45;;;0.60;;
20857;SDS011;10589;53.636;10.012;2023-07-22T09:41:52;2.83;;;0.80;;
20857;SDS011;10589;53.636;10.012;2023-07-22T09:44:18;1.40;;;0.70;;
20857;SDS011;10589;53.636;10.012;2023-07-22T09:46:46;2.88;;;0.77;;
20857;SDS011;10589;53.636;10.012;2023-07-22T09:49:16;0.85;;;0.60;;
20857;SDS011;10589;53.636;10.012;2023-07-22T09:51:43;2.58;;;0.95;;
20857;SDS011;10589;53.636;10.012;2023-07-22T09:54:08;2.17;;;0.70;;
20857;SDS011;10589;53.636;10.012;2023-07-22T09:56:44;4.35;;;0.95;;
20857;SDS011;10589;53.636;10.012;2023-07-22T09:59:12;1.50;;;0.80;;
20857;SDS011;10589;53.636;10.012;2023-07-22T10:01:38;2.60;;;0.80;;
20857;SDS011;10589;53.636;10.012;2023-07-22T10:04:05;5.07;;;1.00;;
20857;SDS011;10589;53.636;10.012;2023-07-22T10:06:31;2.38;;;0.68;;
20857;SDS011;10589;53.636;10.012;2023-07-22T10:09:01;0.98;;;0.60;;
20857;SDS011;10589;53.636;10.012;2023-07-22T10:11:38;4.30;;;0.70;;
20857;SDS011;10589;53.636;10.012;2023-07-22T10:14:05;6.75;;;0.93;;
20857;SDS011;10589;53.636;10.012;2023-07-22T10:16:31;2.75;;;0.77;;
20857;SDS011;10589;53.636;10.012;2023-07-22T10:18:57;1.00;;;0.70;;
20857;SDS011;10589;53.636;10.012;2023-07-22T10:21:24;3.40;;;0.98;;
20857;SDS011;10589;53.636;10.012;2023-07-22T10:23:50;2.97;;;0.85;;
20857;SDS011;10589;53.636;10.012;2023-07-22T10:26:16;1.73;;;0.77;;
20857;SDS011;10589;53.636;10.012;2023-07-22T10:28:43;1.40;;;0.80;;
20857;SDS011;10589;53.636;10.012;2023-07-22T10:31:10;2.58;;;0.80;;
20857;SDS011;10589;53.636;10.012;2023-07-22T10:33:37;3.88;;;0.98;;
20857;SDS011;10589;53.636;10.012;2023-07-22T10:36:07;2.40;;;0.80;;
20857;SDS011;10589;53.636;10.012;2023-07-22T10:38:34;1.38;;;0.90;;
20857;SDS011;10589;53.636;10.012;2023-07-22T10:41:01;2.80;;;1.13;;
20857;SDS011;10589;53.636;10.012;2023-07-22T10:43:35;2.15;;;0.93;;
20857;SDS011;10589;53.636;10.012;2023-07-22T10:46:12;1.10;;;0.57;;
20857;SDS011;10589;53.636;10.012;2023-07-22T10:48:41;1.73;;;0.88;;
20857;SDS011;10589;53.636;10.012;2023-07-22T10:53:45;3.72;;;0.98;;
20857;SDS011;10589;53.636;10.012;2023-07-22T10:56:13;2.28;;;1.10;;
20857;SDS011;10589;53.636;10.012;2023-07-22T11:04:12;2.20;;;1.02;;
20857;SDS011;10589;53.636;10.012;2023-07-22T11:07:00;2.90;;;1.10;;
20857;SDS011;10589;53.636;10.012;2023-07-22T11:12:01;2.00;;;1.20;;
20857;SDS011;10589;53.636;10.012;2023-07-22T11:14:30;1.30;;;1.10;;
20857;SDS011;10589;53.636;10.012;2023-07-22T11:17:17;1.75;;;1.23;;
20857;SDS011;10589;53.636;10.012;2023-07-22T11:19:52;3.13;;;1.27;;
20857;SDS011;10589;53.636;10.012;2023-07-22T11:22:17;2.33;;;1.48;;
20857;SDS011;10589;53.636;10.012;2023-07-22T11:24:44;1.80;;;1.42;;
20857;SDS011;10589;53.636;10.012;2023-07-22T11:27:10;4.40;;;1.67;;
20857;SDS011;10589;53.636;10.012;2023-07-22T11:29:38;2.17;;;1.60;;
20857;SDS011;10589;53.636;10.012;2023-07-22T11:32:05;2.15;;;1.50;;
20857;SDS011;10589;53.636;10.012;2023-07-22T11:34:32;2.00;;;1.55;;
20857;SDS011;10589;53.636;10.012;2023-07-22T11:37:00;6.20;;;1.90;;
20857;SDS011;10589;53.636;10.012;2023-07-22T11:39:26;3.25;;;1.50;;
20857;SDS011;10589;53.636;10.012;2023-07-22T11:41:56;3.75;;;1.90;;
20857;SDS011;10589;53.636;10.012;2023-07-22T11:44:31;3.50;;;2.05;;
20857;SDS011;10589;53.636;10.012;2023-07-22T11:46:57;3.00;;;1.90;;
20857;SDS011;10589;53.636;10.012;2023-07-22T11:52:03;2.60;;;2.20;;
20857;SDS011;10589;53.636;10.012;2023-07-22T11:54:40;2.85;;;2.10;;
20857;SDS011;10589;53.636;10.012;2023-07-22T11:57:17;2.60;;;1.83;;
20857;SDS011;10589;53.636;10.012;2023-07-22T11:59:47;3.00;;;2.13;;
20857;SDS011;10589;53.636;10.012;2023-07-22T12:02:14;4.35;;;2.05;;
20857;SDS011;10589;53.636;10.012;2023-07-22T12:04:41;3.88;;;1.90;;
20857;SDS011;10589;53.636;10.012;2023-07-22T12:07:20;3.42;;;2.28;;
20857;SDS011;10589;53.636;10.012;2023-07-22T12:09:48;2.40;;;2.13;;
20857;SDS011;10589;53.636;10.012;2023-07-22T12:12:14;2.40;;;1.73;;
20857;SDS011;10589;53.636;10.012;2023-07-22T12:14:40;3.55;;;2.50;;
20857;SDS011;10589;53.636;10.012;2023-07-22T12:17:07;3.70;;;2.30;;
20857;SDS011;10589;53.636;10.012;2023-07-22T12:19:34;2.47;;;2.25;;
20857;SDS011;10589;53.636;10.012;2023-07-22T12:22:00;3.20;;;2.25;;
20857;SDS011;10589;53.636;10.012;2023-07-22T12:24:26;3.78;;;2.30;;
20857;SDS011;10589;53.636;10.012;2023-07-22T12:26:52;3.97;;;2.30;;
20857;SDS011;10589;53.636;10.012;2023-07-22T12:29:18;3.75;;;2.58;;
20857;SDS011;10589;53.636;10.012;2023-07-22T12:31:43;3.00;;;2.40;;
20857;SDS011;10589;53.636;10.012;2023-07-22T12:34:09;5.32;;;2.63;;
20857;SDS011;10589;53.636;10.012;2023-07-22T12:36:35;4.22;;;2.58;;
20857;SDS011;10589;53.636;10.012;2023-07-22T12:39:00;4.03;;;2.85;;
20857;SDS011;10589;53.636;10.012;2023-07-22T12:41:26;4.50;;;2.95;;
20857;SDS011;10589;53.636;10.012;2023-07-22T12:43:51;4.75;;;3.08;;
20857;SDS011;10589;53.636;10.012;2023-07-22T12:46:17;4.70;;;3.88;;
20857;SDS011;10589;53.636;10.012;2023-07-22T12:48:43;6.85;;;4.13;;
20857;SDS011;10589;53.636;10.012;2023-07-22T12:51:09;11.45;;;5.20;;
20857;SDS011;10589;53.636;10.012;2023-07-22T12:53:34;10.23;;;4.93;;
20857;SDS011;10589;53.636;10.012;2023-07-22T12:56:00;6.95;;;5.03;;
20857;SDS011;10589;53.636;10.012;2023-07-22T12:58:28;11.60;;;5.75;;
20857;SDS011;10589;53.636;10.012;2023-07-22T13:00:54;7.47;;;6.35;;
20857;SDS011;10589;53.636;10.012;2023-07-22T13:03:19;8.02;;;6.05;;
20857;SDS011;10589;53.636;10.012;2023-07-22T13:05:45;6.32;;;5.18;;
20857;SDS011;10589;53.636;10.012;2023-07-22T13:08:11;7.18;;;5.82;;
20857;SDS011;10589;53.636;10.012;2023-07-22T13:10:36;11.95;;;6.72;;
20857;SDS011;10589;53.636;10.012;2023-07-22T13:13:03;10.65;;;6.95;;
20857;SDS011;10589;53.636;10.012;2023-07-22T13:15:29;10.05;;;6.90;;
20857;SDS011;10589;53.636;10.012;2023-07-22T13:17:55;8.80;;;6.30;;
20857;SDS011;10589;53.636;10.012;2023-07-22T13:20:20;9.80;;;7.57;;
20857;SDS011;10589;53.636;10.012;2023-07-22T13:22:46;9.52;;;6.60;;
20857;SDS011;10589;53.636;10.012;2023-07-22T13:25:11;9.57;;;7.45;;
20857;SDS011;10589;53.636;10.012;2023-07-22T13:27:37;10.57;;;7.53;;
20857;SDS011;10589;53.636;10.012;2023-07-22T13:30:08;10.82;;;7.18;;
20857;SDS011;10589;53.636;10.012;2023-07-22T13:32:34;12.48;;;6.93;;
20857;SDS011;10589;53.636;10.012;2023-07-22T13:35:00;8.43;;;6.50;;
20857;SDS011;10589;53.636;10.012;2023-07-22T13:37:25;12.13;;;6.35;;
20857;SDS011;10589;53.636;10.012;2023-07-22T13:39:51;9.35;;;6.75;;
20857;SDS011;10589;53.636;10.012;2023-07-22T13:42:18;9.68;;;6.60;;
20857;SDS011;10589;53.636;10.012;2023-07-22T13:44:43;10.40;;;7.38;;
20857;SDS011;10589;53.636;10.012;2023-07-22T13:47:09;11.68;;;7.38;;
20857;SDS011;10589;53.636;10.012;2023-07-22T13:49:35;9.18;;;6.72;;
20857;SDS011;10589;53.636;10.012;2023-07-22T13:52:01;9.73;;;7.30;;
20857;SDS011;10589;53.636;10.012;2023-07-22T13:54:27;10.38;;;7.10;;
20857;SDS011;10589;53.636;10.012;2023-07-22T13:56:53;11.07;;;7.30;;
20857;SDS011;10589;53.636;10.012;2023-07-22T13:59:18;9.70;;;6.97;;
20857;SDS011;10589;53.636;10.012;2023-07-22T14:01:44;12.32;;;7.70;;
20857;SDS011;10589;53.636;10.012;2023-07-22T14:04:09;11.30;;;7.65;;
20857;SDS011;10589;53.636;10.012;2023-07-22T14:06:35;9.55;;;6.60;;
20857;SDS011;10589;53.636;10.012;2023-07-22T14:09:01;10.13;;;7.95;;
20857;SDS011;10589;53.636;10.012;2023-07-22T14:11:26;10.82;;;6.85;;
20857;SDS011;10589;53.636;10.012;2023-07-22T14:13:52;10.55;;;6.68;;
20857;SDS011;10589;53.636;10.012;2023-07-22T14:16:17;9.75;;;7.45;;
20857;SDS011;10589;53.636;10.012;2023-07-22T14:18:43;8.43;;;6.43;;
20857;SDS011;10589;53.636;10.012;2023-07-22T14:21:10;8.95;;;6.93;;
20857;SDS011;10589;53.636;10.012;2023-07-22T14:23:37;9.85;;;7.15;;
20857;SDS011;10589;53.636;10.012;2023-07-22T14:26:03;8.77;;;6.60;;
20857;SDS011;10589;53.636;10.012;2023-07-22T14:28:29;8.38;;;5.88;;
20857;SDS011;10589;53.636;10.012;2023-07-22T14:30:54;7.63;;;6.22;;
20857;SDS011;10589;53.636;10.012;2023-07-22T14:33:20;6.75;;;5.97;;
20857;SDS011;10589;53.636;10.012;2023-07-22T14:35:45;7.40;;;6.05;;
20857;SDS011;10589;53.636;10.012;2023-07-22T14:38:11;6.00;;;4.93;;
20857;SDS011;10589;53.636;10.012;2023-07-22T14:40:37;6.40;;;5.50;;
20857;SDS011;10589;53.636;10.012;2023-07-22T14:43:02;6.13;;;5.13;;
20857;SDS011;10589;53.636;10.012;2023-07-22T14:45:29;6.00;;;4.60;;
20857;SDS011;10589;53.636;10.012;2023-07-22T14:47:54;7.70;;;5.78;;
20857;SDS011;10589;53.636;10.012;2023-07-22T14:50:20;6.00;;;4.93;;
20857;SDS011;10589;53.636;10.012;2023-07-22T14:52:46;6.45;;;5.20;;
20857;SDS011;10589;53.636;10.012;2023-07-22T14:55:11;8.30;;;5.65;;
20857;SDS011;10589;53.636;10.012;2023-07-22T14:57:37;5.70;;;5.05;;
20857;SDS011;10589;53.636;10.012;2023-07-22T15:00:03;6.75;;;3.78;;
20857;SDS011;10589;53.636;10.012;2023-07-22T15:02:29;4.35;;;3.50;;
20857;SDS011;10589;53.636;10.012;2023-07-22T15:04:55;4.30;;;3.40;;
20857;SDS011;10589;53.636;10.012;2023-07-22T15:07:21;5.10;;;3.55;;
20857;SDS011;10589;53.636;10.012;2023-07-22T15:09:48;4.30;;;3.67;;
20857;SDS011;10589;53.636;10.012;2023-07-22T15:12:13;4.88;;;3.55;;
20857;SDS011;10589;53.636;10.012;2023-07-22T15:14:39;4.47;;;3.50;;
20857;SDS011;10589;53.636;10.012;2023-07-22T15:17:05;5.32;;;2.90;;
20857;SDS011;10589;53.636;10.012;2023-07-22T15:19:31;4.95;;;3.17;;
20857;SDS011;10589;53.636;10.012;2023-07-22T15:21:56;5.70;;;3.50;;
20857;SDS011;10589;53.636;10.012;2023-07-22T15:24:22;4.50;;;2.90;;
20857;SDS011;10589;53.636;10.012;2023-07-22T15:26:48;4.10;;;2.60;;
20857;SDS011;10589;53.636;10.012;2023-07-22T15:29:13;4.63;;;2.80;;
20857;SDS011;10589;53.636;10.012;2023-07-22T15:31:39;4.93;;;2.80;;
20857;SDS011;10589;53.636;10.012;2023-07-22T15:34:04;3.80;;;2.67;;
20857;SDS011;10589;53.636;10.012;2023-07-22T15:36:30;4.07;;;2.90;;
20857;SDS011;10589;53.636;10.012;2023-07-22T15:38:56;4.80;;;2.92;;
20857;SDS011;10589;53.636;10.012;2023-07-22T15:41:21;5.50;;;3.40;;
20857;SDS011;10589;53.636;10.012;2023-07-22T15:43:47;4.05;;;3.65;;
20857;SDS011;10589;53.636;10.012;2023-07-22T15:46:12;5.28;;;3.92;;
20857;SDS011;10589;53.636;10.012;2023-07-22T15:48:38;5.35;;;4.10;;
20857;SDS011;10589;53.636;10.012;2023-07-22T15:51:04;3.42;;;3.10;;
20857;SDS011;10589;53.636;10.012;2023-07-22T15:53:29;7.18;;;4.13;;
20857;SDS011;10589;53.636;10.012;2023-07-22T15:55:55;6.18;;;3.78;;
20857;SDS011;10589;53.636;10.012;2023-07-22T15:58:20;5.93;;;4.00;;
20857;SDS011;10589;53.636;10.012;2023-07-22T16:00:46;6.13;;;4.00;;
20857;SDS011;10589;53.636;10.012;2023-07-22T16:03:13;6.05;;;4.13;;
20857;SDS011;10589;53.636;10.012;2023-07-22T16:05:39;4.25;;;3.80;;
20857;SDS011;10589;53.636;10.012;2023-07-22T16:08:05;4.97;;;3.33;;
20857;SDS011;10589;53.636;10.012;2023-07-22T16:10:33;8.55;;;4.90;;
20857;SDS011;10589;53.636;10.012;2023-07-22T16:12:59;5.65;;;4.00;;
20857;SDS011;10589;53.636;10.012;2023-07-22T16:15:25;6.32;;;4.20;;
20857;SDS011;10589;53.636;10.012;2023-07-22T16:17:51;6.00;;;4.50;;
20857;SDS011;10589;53.636;10.012;2023-07-22T16:20:17;5.45;;;3.90;;
20857;SDS011;10589;53.636;10.012;2023-07-22T16:22:43;7.45;;;4.47;;
20857;SDS011;10589;53.636;10.012;2023-07-22T16:25:09;6.45;;;5.10;;
20857;SDS011;10589;53.636;10.012;2023-07-22T16:27:36;6.45;;;5.03;;
20857;SDS011;10589;53.636;10.012;2023-07-22T16:30:02;6.32;;;5.30;;
20857;SDS011;10589;53.636;10.012;2023-07-22T16:32:28;5.53;;;4.95;;
20857;SDS011;10589;53.636;10.012;2023-07-22T16:34:54;7.77;;;5.60;;
20857;SDS011;10589;53.636;10.012;2023-07-22T16:37:20;8.18;;;5.93;;
20857;SDS011;10589;53.636;10.012;2023-07-22T16:39:45;7.97;;;5.70;;
20857;SDS011;10589;53.636;10.012;2023-07-22T16:42:11;8.68;;;5.75;;
20857;SDS011;10589;53.636;10.012;2023-07-22T16:44:36;8.25;;;5.43;;
20857;SDS011;10589;53.636;10.012;2023-07-22T16:47:02;6.03;;;5.43;;
20857;SDS011;10589;53.636;10.012;2023-07-22T16:49:27;7.20;;;5.93;;
20857;SDS011;10589;53.636;10.012;2023-07-22T16:51:53;8.23;;;5.90;;
20857;SDS011;10589;53.636;10.012;2023-07-22T16:54:19;12.37;;;7.50;;
20857;SDS011;10589;53.636;10.012;2023-07-22T16:56:45;7.77;;;6.97;;
20857;SDS011;10589;53.636;10.012;2023-07-22T16:59:10;8.70;;;6.57;;
20857;SDS011;10589;53.636;10.012;2023-07-22T17:01:36;9.20;;;7.40;;
20857;SDS011;10589;53.636;10.012;2023-07-22T17:04:03;9.93;;;7.20;;
20857;SDS011;10589;53.636;10.012;2023-07-22T17:06:30;6.30;;;5.70;;
20857;SDS011;10589;53.636;10.012;2023-07-22T17:08:55;8.30;;;6.87;;
20857;SDS011;10589;53.636;10.012;2023-07-22T17:11:21;12.13;;;7.93;;
20857;SDS011;10589;53.636;10.012;2023-07-22T17:13:47;8.63;;;6.57;;
20857;SDS011;10589;53.636;10.012;2023-07-22T17:16:12;10.47;;;6.93;;
20857;SDS011;10589;53.636;10.012;2023-07-22T17:18:38;10.80;;;7.37;;
20857;SDS011;10589;53.636;10.012;2023-07-22T17:21:04;9.97;;;7.73;;
20857;SDS011;10589;53.636;10.012;2023-07-22T17:23:29;9.77;;;7.80;;
20857;SDS011;10589;53.636;10.012;2023-07-22T17:25:55;12.68;;;9.80;;
20857;SDS011;10589;53.636;10.012;2023-07-22T17:28:20;13.23;;;10.47;;
20857;SDS011;10589;53.636;10.012;2023-07-22T17:30:46;9.63;;;8.50;;
20857;SDS011;10589;53.636;10.012;2023-07-22T17:33:12;11.37;;;10.17;;
20857;SDS011;10589;53.636;10.012;2023-07-22T17:35:38;12.97;;;10.10;;
20857;SDS011;10589;53.636;10.012;2023-07-22T17:38:04;15.50;;;10.37;;
20857;SDS011;10589;53.636;10.012;2023-07-22T17:40:30;11.63;;;10.27;;
20857;SDS011;10589;53.636;10.012;2023-07-22T17:42:56;12.20;;;10.83;;
20857;SDS011;10589;53.636;10.012;2023-07-22T17:45:21;15.30;;;12.13;;
20857;SDS011;10589;53.636;10.012;2023-07-22T17:47:47;16.00;;;12.53;;
20857;SDS011;10589;53.636;10.012;2023-07-22T17:50:13;12.53;;;10.73;;
20857;SDS011;10589;53.636;10.012;2023-07-22T17:52:39;24.23;;;21.60;;
20857;SDS011;10589;53.636;10.012;2023-07-22T17:55:05;14.57;;;12.67;;
20857;SDS011;10589;53.636;10.012;2023-07-22T17:57:32;13.93;;;11.80;;
20857;SDS011;10589;53.636;10.012;2023-07-22T17:59:58;14.77;;;11.77;;
20857;SDS011;10589;53.636;10.012;2023-07-22T18:02:23;14.20;;;11.77;;
20857;SDS011;10589;53.636;10.012;2023-07-22T18:04:49;13.50;;;11.20;;
20857;SDS011;10589;53.636;10.012;2023-07-22T18:07:14;14.33;;;11.20;;
20857;SDS011;10589;53.636;10.012;2023-07-22T18:09:40;13.00;;;10.63;;
20857;SDS011;10589;53.636;10.012;2023-07-22T18:12:06;13.43;;;11.03;;
20857;SDS011;10589;53.636;10.012;2023-07-22T18:14:36;16.07;;;11.57;;
20857;SDS011;10589;53.636;10.012;2023-07-22T18:17:02;14.53;;;10.30;;
20857;SDS011;10589;53.636;10.012;2023-07-22T18:19:28;13.17;;;10.83;;
20857;SDS011;10589;53.636;10.012;2023-07-22T18:21:53;13.03;;;10.67;;
20857;SDS011;10589;53.636;10.012;2023-07-22T18:24:20;11.70;;;9.87;;
20857;SDS011;10589;53.636;10.012;2023-07-22T18:26:46;13.03;;;9.60;;